sensor_id;sensor_type;location;lat;lon;timestamp;P1;durP1;ratioP1;P2;durP2;ratioP2
41881;SDS011;27562;47.524;12.404;2023-06-19T12:35:14;7.00;;;5.25;;
41881;SDS011;27562;47.524;12.404;2023-06-19T12:37:40;6.97;;;5.57;;
41881;SDS011;27562;47.524;12.404;2023-06-19T12:40:06;5.38;;;4.80;;
41881;SDS011;27562;47.524;12.404;2023-06-19T12:42:35;7.07;;;5.38;;
41881;SDS011;27562;47.524;12.404;2023-06-19T12:45:02;8.73;;;5.55;;
41881;SDS011;27562;47.524;12.404;2023-06-19T12:47:28;6.68;;;5.18;;
41881;SDS011;27562;47.524;12.404;2023-06-19T12:49:54;5.32;;;4.72;;
41881;SDS011;27562;47.524;12.404;2023-06-19T12:52:19;5.73;;;5.23;;
41881;SDS011;27562;47.524;12.404;2023-06-19T12:54:45;6.87;;;5.23;;
41881;SDS011;27562;47.524;12.404;2023-06-19T12:57:11;7.68;;;5.82;;
41881;SDS011;27562;47.524;12.404;2023-06-19T12:59:36;6.07;;;5.28;;
41881;SDS011;27562;47.524;12.404;2023-06-19T13:02:02;6.00;;;5.22;;
41881;SDS011;27562;47.524;12.404;2023-06-19T13:04:28;6.32;;;5.10;;
41881;SDS011;27562;47.524;12.404;2023-06-19T13:06:54;6.53;;;5.40;;
41881;SDS011;27562;47.524;12.404;2023-06-19T13:09:19;7.57;;;5.53;;
41881;SDS011;27562;47.524;12.404;2023-06-19T13:11:45;6.05;;;5.00;;
41881;SDS011;27562;47.524;12.404;2023-06-19T13:14:10;5.90;;;5.30;;
41881;SDS011;27562;47.524;12.404;2023-06-19T13:16:36;7.10;;;5.80;;
41881;SDS011;27562;47.524;12.404;2023-06-19T13:19:02;6.20;;;5.30;;
41881;SDS011;27562;47.524;12.404;2023-06-19T13:21:27;6.55;;;5.88;;
41881;SDS011;27562;47.524;12.404;2023-06-19T13:23:53;7.50;;;6.00;;
41881;SDS011;27562;47.524;12.404;2023-06-19T13:26:19;5.90;;;5.28;;
41881;SDS011;27562;47.524;12.404;2023-06-19T13:28:45;6.80;;;5.30;;
41881;SDS011;27562;47.524;12.404;2023-06-19T13:31:11;6.57;;;5.13;;
41881;SDS011;27562;47.524;12.404;2023-06-19T13:33:37;6.90;;;5.87;;
41881;SDS011;27562;47.524;12.404;2023-06-19T13:36:02;6.68;;;5.32;;
41881;SDS011;27562;47.524;12.404;2023-06-19T13:38:28;8.18;;;5.80;;
41881;SDS011;27562;47.524;12.404;2023-06-19T13:40:54;7.97;;;5.47;;
41881;SDS011;27562;47.524;12.404;2023-06-19T13:43:20;6.00;;;5.35;;
41881;SDS011;27562;47.524;12.404;2023-06-19T13:45:48;9.63;;;5.90;;
41881;SDS011;27562;47.524;12.404;2023-06-19T13:48:14;8.43;;;5.57;;
41881;SDS011;27562;47.524;12.404;2023-06-19T13:50:39;8.98;;;5.57;;
41881;SDS011;27562;47.524;12.404;2023-06-19T13:53:05;9.95;;;5.68;;
41881;SDS011;27562;47.524;12.404;2023-06-19T13:55:31;9.50;;;6.50;;
41881;SDS011;27562;47.524;12.404;2023-06-19T13:57:57;6.65;;;5.85;;
41881;SDS011;27562;47.524;12.404;2023-06-19T14:00:22;7.30;;;5.90;;
41881;SDS011;27562;47.524;12.404;2023-06-19T14:02:48;8.00;;;6.40;;
41881;SDS011;27562;47.524;12.404;2023-06-19T14:05:15;8.77;;;6.30;;
41881;SDS011;27562;47.524;12.404;2023-06-19T14:07:40;7.45;;;6.75;;
41881;SDS011;27562;47.524;12.404;2023-06-19T14:10:07;8.00;;;6.43;;
41881;SDS011;27562;47.524;12.404;2023-06-19T14:12:33;6.43;;;5.82;;
41881;SDS011;27562;47.524;12.404;2023-06-19T14:14:59;8.32;;;6.53;;
41881;SDS011;27562;47.524;12.404;2023-06-19T14:17:25;7.03;;;5.70;;
41881;SDS011;27562;47.524;12.404;2023-06-19T14:19:51;7.30;;;6.55;;
41881;SDS011;27562;47.524;12.404;2023-06-19T14:22:16;7.35;;;6.00;;
41881;SDS011;27562;47.524;12.404;2023-06-19T14:24:42;7.82;;;6.65;;
41881;SDS011;27562;47.524;12.404;2023-06-19T14:27:08;8.10;;;6.30;;
41881;SDS011;27562;47.524;12.404;2023-06-19T14:29:34;7.95;;;6.88;;
41881;SDS011;27562;47.524;12.404;2023-06-19T14:32:00;10.38;;;6.60;;
41881;SDS011;27562;47.524;12.404;2023-06-19T14:34:26;7.38;;;6.68;;
41881;SDS011;27562;47.524;12.404;2023-06-19T14:36:51;8.52;;;6.40;;
41881;SDS011;27562;47.524;12.404;2023-06-19T14:39:17;10.80;;;6.20;;
41881;SDS011;27562;47.524;12.404;2023-06-19T14:41:42;8.25;;;6.65;;
41881;SDS011;27562;47.524;12.404;2023-06-19T14:44:08;7.05;;;5.95;;
41881;SDS011;27562;47.524;12.404;2023-06-19T14:46:34;7.25;;;6.47;;
41881;SDS011;27562;47.524;12.404;2023-06-19T14:49:06;9.30;;;6.35;;
41881;SDS011;27562;47.524;12.404;2023-06-19T14:51:32;6.95;;;6.25;;
41881;SDS011;27562;47.524;12.404;2023-06-19T14:53:58;9.27;;;6.88;;
41881;SDS011;27562;47.524;12.404;2023-06-19T14:56:24;9.48;;;6.55;;
41881;SDS011;27562;47.524;12.404;2023-06-19T14:58:49;6.85;;;6.25;;
41881;SDS011;27562;47.524;12.404;2023-06-19T15:01:15;9.82;;;6.78;;
41881;SDS011;27562;47.524;12.404;2023-06-19T15:03:41;6.97;;;6.10;;
41881;SDS011;27562;47.524;12.404;2023-06-19T15:06:07;8.25;;;7.03;;
41881;SDS011;27562;47.524;12.404;2023-06-19T15:08:33;8.43;;;6.25;;
41881;SDS011;27562;47.524;12.404;2023-06-19T15:11:00;7.80;;;7.00;;
41881;SDS011;27562;47.524;12.404;2023-06-19T15:13:28;7.72;;;6.93;;
41881;SDS011;27562;47.524;12.404;2023-06-19T15:15:53;8.18;;;7.07;;
41881;SDS011;27562;47.524;12.404;2023-06-19T15:18:19;9.68;;;6.50;;
41881;SDS011;27562;47.524;12.404;2023-06-19T15:20:45;7.20;;;6.50;;
41881;SDS011;27562;47.524;12.404;2023-06-19T15:23:11;8.10;;;6.65;;
41881;SDS011;27562;47.524;12.404;2023-06-19T15:25:37;7.57;;;6.60;;
41881;SDS011;27562;47.524;12.404;2023-06-19T15:28:03;7.22;;;6.53;;
41881;SDS011;27562;47.524;12.404;2023-06-19T15:30:28;9.30;;;6.75;;
41881;SDS011;27562;47.524;12.404;2023-06-19T15:32:54;13.23;;;6.88;;
41881;SDS011;27562;47.524;12.404;2023-06-19T15:35:19;9.30;;;7.40;;
41881;SDS011;27562;47.524;12.404;2023-06-19T15:37:45;10.65;;;6.90;;
41881;SDS011;27562;47.524;12.404;2023-06-19T15:40:11;7.90;;;6.65;;
41881;SDS011;27562;47.524;12.404;2023-06-19T15:42:37;8.18;;;6.65;;
41881;SDS011;27562;47.524;12.404;2023-06-19T15:45:03;7.90;;;7.10;;
41881;SDS011;27562;47.524;12.404;2023-06-19T15:47:29;8.50;;;6.57;;
41881;SDS011;27562;47.524;12.404;2023-06-19T15:49:57;7.22;;;6.53;;
41881;SDS011;27562;47.524;12.404;2023-06-19T15:52:23;8.65;;;7.15;;
41881;SDS011;27562;47.524;12.404;2023-06-19T15:54:49;7.35;;;6.65;;
41881;SDS011;27562;47.524;12.404;2023-06-19T15:57:15;8.60;;;6.93;;
41881;SDS011;27562;47.524;12.404;2023-06-19T15:59:40;7.38;;;6.68;;
41881;SDS011;27562;47.524;12.404;2023-06-19T16:02:06;7.40;;;6.70;;
41881;SDS011;27562;47.524;12.404;2023-06-19T16:04:35;10.20;;;7.53;;
41881;SDS011;27562;47.524;12.404;2023-06-19T16:07:01;10.02;;;7.30;;
41881;SDS011;27562;47.524;12.404;2023-06-19T16:09:27;9.30;;;7.15;;
41881;SDS011;27562;47.524;12.404;2023-06-19T16:11:52;8.63;;;7.05;;
41881;SDS011;27562;47.524;12.404;2023-06-19T16:14:18;8.00;;;7.10;;
41881;SDS011;27562;47.524;12.404;2023-06-19T16:16:44;9.65;;;7.32;;
41881;SDS011;27562;47.524;12.404;2023-06-19T16:19:09;7.78;;;6.93;;
41881;SDS011;27562;47.524;12.404;2023-06-19T16:21:35;7.45;;;6.68;;
41881;SDS011;27562;47.524;12.404;2023-06-19T16:24:01;10.55;;;7.28;;
41881;SDS011;27562;47.524;12.404;2023-06-19T16:26:26;9.43;;;7.28;;
41881;SDS011;27562;47.524;12.404;2023-06-19T16:28:53;7.70;;;6.90;;
41881;SDS011;27562;47.524;12.404;2023-06-19T16:31:18;8.95;;;7.53;;
41881;SDS011;27562;47.524;12.404;2023-06-19T16:33:44;8.55;;;6.82;;
41881;SDS011;27562;47.524;12.404;2023-06-19T16:36:10;10.15;;;7.45;;
41881;SDS011;27562;47.524;12.404;2023-06-19T16:38:36;9.25;;;7.35;;
41881;SDS011;27562;47.524;12.404;2023-06-19T16:41:02;10.45;;;7.10;;
41881;SDS011;27562;47.524;12.404;2023-06-19T16:43:27;12.18;;;7.32;;
41881;SDS011;27562;47.524;12.404;2023-06-19T16:45:53;7.60;;;6.80;;
41881;SDS011;27562;47.524;12.404;2023-06-19T16:48:19;8.85;;;7.07;;
41881;SDS011;27562;47.524;12.404;2023-06-19T16:50:44;8.15;;;7.03;;
41881;SDS011;27562;47.524;12.404;2023-06-19T16:53:11;8.80;;;7.53;;
41881;SDS011;27562;47.524;12.404;2023-06-19T16:55:37;8.77;;;7.10;;
41881;SDS011;27562;47.524;12.404;2023-06-19T16:58:03;8.25;;;7.18;;
41881;SDS011;27562;47.524;12.404;2023-06-19T17:00:29;8.75;;;7.25;;
41881;SDS011;27562;47.524;12.404;2023-06-19T17:02:55;9.40;;;7.82;;
41881;SDS011;27562;47.524;12.404;2023-06-19T17:05:22;9.25;;;7.50;;
41881;SDS011;27562;47.524;12.404;2023-06-19T17:07:48;10.20;;;7.70;;
41881;SDS011;27562;47.524;12.404;2023-06-19T17:10:15;12.63;;;7.60;;
41881;SDS011;27562;47.524;12.404;2023-06-19T17:12:41;8.32;;;7.05;;
41881;SDS011;27562;47.524;12.404;2023-06-19T17:15:07;7.93;;;7.10;;
41881;SDS011;27562;47.524;12.404;2023-06-19T17:17:33;7.65;;;6.72;;
41881;SDS011;27562;47.524;12.404;2023-06-19T17:19:59;10.32;;;5.20;;
41881;SDS011;27562;47.524;12.404;2023-06-19T17:22:25;13.90;;;5.15;;
41881;SDS011;27562;47.524;12.404;2023-06-19T17:24:51;21.90;;;6.15;;
41881;SDS011;27562;47.524;12.404;2023-06-19T17:27:16;14.35;;;6.10;;
41881;SDS011;27562;47.524;12.404;2023-06-19T17:29:42;10.35;;;6.28;;
41881;SDS011;27562;47.524;12.404;2023-06-19T17:32:08;24.20;;;6.90;;
41881;SDS011;27562;47.524;12.404;2023-06-19T17:51:39;9.65;;;5.70;;
41881;SDS011;27562;47.524;12.404;2023-06-19T17:54:05;11.52;;;6.35;;
41881;SDS011;27562;47.524;12.404;2023-06-19T17:56:31;12.57;;;6.25;;
41881;SDS011;27562;47.524;12.404;2023-06-19T17:58:56;7.95;;;4.82;;
41881;SDS011;27562;47.524;12.404;2023-06-19T18:01:22;7.07;;;4.20;;
41881;SDS011;27562;47.524;12.404;2023-06-19T18:03:48;9.75;;;4.53;;
41881;SDS011;27562;47.524;12.404;2023-06-19T18:06:14;8.52;;;4.72;;
41881;SDS011;27562;47.524;12.404;2023-06-19T18:08:40;9.57;;;5.07;;
41881;SDS011;27562;47.524;12.404;2023-06-19T18:11:05;10.65;;;5.05;;
41881;SDS011;27562;47.524;12.404;2023-06-19T18:13:31;9.23;;;4.97;;
41881;SDS011;27562;47.524;12.404;2023-06-19T18:15:57;8.40;;;4.93;;
41881;SDS011;27562;47.524;12.404;2023-06-19T18:18:22;8.50;;;5.57;;
41881;SDS011;27562;47.524;12.404;2023-06-19T18:20:48;10.05;;;6.07;;
41881;SDS011;27562;47.524;12.404;2023-06-19T18:23:13;8.10;;;5.38;;
41881;SDS011;27562;47.524;12.404;2023-06-19T18:25:39;7.50;;;5.35;;
41881;SDS011;27562;47.524;12.404;2023-06-19T18:28:06;8.88;;;6.30;;
41881;SDS011;27562;47.524;12.404;2023-06-19T18:30:31;11.60;;;7.55;;
41881;SDS011;27562;47.524;12.404;2023-06-19T18:32:57;9.85;;;6.88;;
41881;SDS011;27562;47.524;12.404;2023-06-19T18:35:23;8.63;;;6.75;;
41881;SDS011;27562;47.524;12.404;2023-06-19T18:37:48;7.78;;;5.32;;
41881;SDS011;27562;47.524;12.404;2023-06-19T18:40:14;10.23;;;5.50;;
41881;SDS011;27562;47.524;12.404;2023-06-19T18:42:40;8.80;;;5.43;;
41881;SDS011;27562;47.524;12.404;2023-06-19T18:45:06;9.63;;;5.70;;
41881;SDS011;27562;47.524;12.404;2023-06-19T18:47:33;7.30;;;5.40;;
41881;SDS011;27562;47.524;12.404;2023-06-19T18:49:58;7.43;;;4.80;;
41881;SDS011;27562;47.524;12.404;2023-06-19T18:52:24;7.38;;;4.60;;
41881;SDS011;27562;47.524;12.404;2023-06-19T18:54:50;8.15;;;5.32;;
41881;SDS011;27562;47.524;12.404;2023-06-19T18:57:15;9.65;;;5.35;;
41881;SDS011;27562;47.524;12.404;2023-06-19T18:59:41;10.23;;;5.75;;
41881;SDS011;27562;47.524;12.404;2023-06-19T19:02:06;9.15;;;5.85;;
41881;SDS011;27562;47.524;12.404;2023-06-19T19:04:34;8.15;;;5.20;;
41881;SDS011;27562;47.524;12.404;2023-06-19T19:07:02;10.13;;;5.40;;
41881;SDS011;27562;47.524;12.404;2023-06-19T19:09:28;7.57;;;5.45;;
41881;SDS011;27562;47.524;12.404;2023-06-19T19:11:54;7.22;;;4.78;;
41881;SDS011;27562;47.524;12.404;2023-06-19T19:14:19;8.65;;;5.25;;
41881;SDS011;27562;47.524;12.404;2023-06-19T19:16:45;7.60;;;5.20;;
41881;SDS011;27562;47.524;12.404;2023-06-19T19:19:11;9.23;;;5.53;;
41881;SDS011;27562;47.524;12.404;2023-06-19T19:21:36;9.88;;;5.30;;
41881;SDS011;27562;47.524;12.404;2023-06-19T19:24:02;8.10;;;5.70;;
41881;SDS011;27562;47.524;12.404;2023-06-19T19:26:28;9.48;;;5.15;;
41881;SDS011;27562;47.524;12.404;2023-06-19T19:28:54;8.13;;;5.70;;
41881;SDS011;27562;47.524;12.404;2023-06-19T19:31:19;8.35;;;5.88;;
41881;SDS011;27562;47.524;12.404;2023-06-19T19:33:45;9.90;;;5.88;;
41881;SDS011;27562;47.524;12.404;2023-06-19T19:36:11;7.95;;;5.47;;
41881;SDS011;27562;47.524;12.404;2023-06-19T19:38:36;9.00;;;6.00;;
41881;SDS011;27562;47.524;12.404;2023-06-19T19:55:36;9.07;;;5.05;;
41881;SDS011;27562;47.524;12.404;2023-06-19T19:58:02;6.57;;;5.20;;
41881;SDS011;27562;47.524;12.404;2023-06-19T20:00:27;6.75;;;5.45;;
41881;SDS011;27562;47.524;12.404;2023-06-19T20:02:53;8.30;;;5.63;;
41881;SDS011;27562;47.524;12.404;2023-06-19T20:05:19;7.47;;;4.97;;
41881;SDS011;27562;47.524;12.404;2023-06-19T20:07:44;10.05;;;5.22;;
41881;SDS011;27562;47.524;12.404;2023-06-19T20:10:10;8.55;;;5.32;;
41881;SDS011;27562;47.524;12.404;2023-06-19T20:12:36;8.02;;;5.53;;
41881;SDS011;27562;47.524;12.404;2023-06-19T20:15:05;7.43;;;5.72;;
41881;SDS011;27562;47.524;12.404;2023-06-19T20:17:32;9.25;;;5.55;;
41881;SDS011;27562;47.524;12.404;2023-06-19T20:19:57;8.07;;;6.10;;
41881;SDS011;27562;47.524;12.404;2023-06-19T20:22:23;7.85;;;6.05;;
41881;SDS011;27562;47.524;12.404;2023-06-19T20:24:49;7.95;;;5.75;;
41881;SDS011;27562;47.524;12.404;2023-06-19T20:27:14;8.20;;;6.15;;
41881;SDS011;27562;47.524;12.404;2023-06-19T20:29:41;8.25;;;6.15;;
41881;SDS011;27562;47.524;12.404;2023-06-19T20:32:07;9.07;;;5.68;;
41881;SDS011;27562;47.524;12.404;2023-06-19T20:34:33;8.38;;;5.80;;
41881;SDS011;27562;47.524;12.404;2023-06-19T20:36:58;8.15;;;6.07;;
